sensor_id;sensor_type;location;lat;lon;timestamp;P1;durP1;ratioP1;P2;durP2;ratioP2
55368;SDS011;41247;49.736;8.752;2023-05-14T00:02:01;6.18;;;4.47;;
55368;SDS011;41247;49.736;8.752;2023-05-14T00:05:42;4.40;;;3.63;;
55368;SDS011;41247;49.736;8.752;2023-05-14T00:09:23;7.90;;;4.13;;
55368;SDS011;41247;49.736;8.752;2023-05-14T00:13:03;5.35;;;4.43;;
55368;SDS011;41247;49.736;8.752;2023-05-14T00:16:44;6.05;;;4.38;;
55368;SDS011;41247;49.736;8.752;2023-05-14T00:20:25;5.55;;;4.38;;
55368;SDS011;41247;49.736;8.752;2023-05-14T00:24:05;8.40;;;4.75;;
55368;SDS011;41247;49.736;8.752;2023-05-14T00:27:46;5.72;;;4.60;;
55368;SDS011;41247;49.736;8.752;2023-05-14T00:31:26;8.18;;;5.18;;
55368;SDS011;41247;49.736;8.752;2023-05-14T00:35:07;7.57;;;4.63;;
55368;SDS011;41247;49.736;8.752;2023-05-14T00:38:48;6.75;;;5.25;;
55368;SDS011;41247;49.736;8.752;2023-05-14T00:42:29;5.78;;;4.47;;
55368;SDS011;41247;49.736;8.752;2023-05-14T00:46:09;6.28;;;4.82;;
55368;SDS011;41247;49.736;8.752;2023-05-14T00:49:50;7.15;;;5.20;;
55368;SDS011;41247;49.736;8.752;2023-05-14T00:53:31;5.50;;;4.70;;
55368;SDS011;41247;49.736;8.752;2023-05-14T00:57:12;5.63;;;4.57;;
55368;SDS011;41247;49.736;8.752;2023-05-14T01:00:53;6.70;;;4.45;;
55368;SDS011;41247;49.736;8.752;2023-05-14T01:04:33;6.65;;;4.57;;
55368;SDS011;41247;49.736;8.752;2023-05-14T01:08:17;8.80;;;4.93;;
55368;SDS011;41247;49.736;8.752;2023-05-14T01:16:39;10.48;;;6.10;;
55368;SDS011;41247;49.736;8.752;2023-05-14T01:20:20;8.73;;;5.55;;
55368;SDS011;41247;49.736;8.752;2023-05-14T01:24:00;7.75;;;6.05;;
55368;SDS011;41247;49.736;8.752;2023-05-14T01:27:43;10.55;;;6.80;;
55368;SDS011;41247;49.736;8.752;2023-05-14T01:31:43;11.68;;;7.28;;
55368;SDS011;41247;49.736;8.752;2023-05-14T01:35:26;13.97;;;8.30;;
55368;SDS011;41247;49.736;8.752;2023-05-14T01:39:09;15.32;;;7.93;;
55368;SDS011;41247;49.736;8.752;2023-05-14T01:42:53;9.25;;;7.18;;
55368;SDS011;41247;49.736;8.752;2023-05-14T01:46:34;9.98;;;7.63;;
55368;SDS011;41247;49.736;8.752;2023-05-14T01:50:15;12.95;;;8.10;;
55368;SDS011;41247;49.736;8.752;2023-05-14T01:53:56;13.73;;;8.63;;
55368;SDS011;41247;49.736;8.752;2023-05-14T01:57:36;11.35;;;8.30;;
55368;SDS011;41247;49.736;8.752;2023-05-14T02:01:17;11.50;;;8.20;;
55368;SDS011;41247;49.736;8.752;2023-05-14T02:04:57;12.50;;;8.38;;
55368;SDS011;41247;49.736;8.752;2023-05-14T02:08:38;12.98;;;8.25;;
55368;SDS011;41247;49.736;8.752;2023-05-14T02:12:19;11.50;;;8.23;;
55368;SDS011;41247;49.736;8.752;2023-05-14T02:15:59;11.65;;;7.95;;
55368;SDS011;41247;49.736;8.752;2023-05-14T02:19:40;9.90;;;7.65;;
55368;SDS011;41247;49.736;8.752;2023-05-14T02:23:20;11.40;;;7.10;;
55368;SDS011;41247;49.736;8.752;2023-05-14T02:27:01;11.82;;;7.93;;
55368;SDS011;41247;49.736;8.752;2023-05-14T02:30:42;10.98;;;8.00;;
55368;SDS011;41247;49.736;8.752;2023-05-14T02:34:22;11.20;;;7.50;;
55368;SDS011;41247;49.736;8.752;2023-05-14T02:38:03;13.02;;;7.53;;
55368;SDS011;41247;49.736;8.752;2023-05-14T02:41:43;12.95;;;7.30;;
55368;SDS011;41247;49.736;8.752;2023-05-14T02:45:24;9.32;;;6.95;;
55368;SDS011;41247;49.736;8.752;2023-05-14T02:49:04;9.45;;;7.00;;
55368;SDS011;41247;49.736;8.752;2023-05-14T02:52:45;8.65;;;7.03;;
55368;SDS011;41247;49.736;8.752;2023-05-14T02:56:26;10.63;;;7.20;;
55368;SDS011;41247;49.736;8.752;2023-05-14T03:00:06;8.70;;;6.88;;
55368;SDS011;41247;49.736;8.752;2023-05-14T03:03:48;9.13;;;7.25;;
55368;SDS011;41247;49.736;8.752;2023-05-14T03:07:28;9.65;;;7.70;;
55368;SDS011;41247;49.736;8.752;2023-05-14T03:11:09;11.85;;;8.13;;
55368;SDS011;41247;49.736;8.752;2023-05-14T03:14:49;13.82;;;9.38;;
55368;SDS011;41247;49.736;8.752;2023-05-14T03:18:30;12.23;;;8.32;;
55368;SDS011;41247;49.736;8.752;2023-05-14T03:22:10;10.93;;;7.70;;
55368;SDS011;41247;49.736;8.752;2023-05-14T03:25:51;10.77;;;7.88;;
55368;SDS011;41247;49.736;8.752;2023-05-14T03:29:32;10.63;;;7.70;;
55368;SDS011;41247;49.736;8.752;2023-05-14T03:33:12;9.60;;;7.05;;
55368;SDS011;41247;49.736;8.752;2023-05-14T03:36:53;12.32;;;7.80;;
55368;SDS011;41247;49.736;8.752;2023-05-14T03:40:34;11.98;;;7.65;;
55368;SDS011;41247;49.736;8.752;2023-05-14T03:44:14;12.20;;;7.82;;
55368;SDS011;41247;49.736;8.752;2023-05-14T03:47:55;11.00;;;7.60;;
55368;SDS011;41247;49.736;8.752;2023-05-14T03:51:35;11.20;;;7.65;;
55368;SDS011;41247;49.736;8.752;2023-05-14T03:55:16;10.85;;;8.60;;
55368;SDS011;41247;49.736;8.752;2023-05-14T04:02:41;10.70;;;7.65;;
55368;SDS011;41247;49.736;8.752;2023-05-14T04:06:21;12.13;;;8.85;;
55368;SDS011;41247;49.736;8.752;2023-05-14T04:10:02;10.82;;;7.70;;
55368;SDS011;41247;49.736;8.752;2023-05-14T04:13:43;10.95;;;7.55;;
55368;SDS011;41247;49.736;8.752;2023-05-14T04:17:24;11.88;;;7.82;;
55368;SDS011;41247;49.736;8.752;2023-05-14T04:21:05;13.90;;;8.65;;
55368;SDS011;41247;49.736;8.752;2023-05-14T04:24:45;15.40;;;9.18;;
55368;SDS011;41247;49.736;8.752;2023-05-14T04:28:26;13.05;;;9.43;;
55368;SDS011;41247;49.736;8.752;2023-05-14T04:32:06;15.45;;;10.10;;
55368;SDS011;41247;49.736;8.752;2023-05-14T04:35:47;18.30;;;10.20;;
55368;SDS011;41247;49.736;8.752;2023-05-14T04:39:28;14.90;;;9.00;;
55368;SDS011;41247;49.736;8.752;2023-05-14T04:43:08;11.38;;;8.75;;
55368;SDS011;41247;49.736;8.752;2023-05-14T04:46:49;11.75;;;8.77;;
55368;SDS011;41247;49.736;8.752;2023-05-14T04:50:30;13.32;;;8.95;;
55368;SDS011;41247;49.736;8.752;2023-05-14T04:54:10;14.35;;;8.50;;
55368;SDS011;41247;49.736;8.752;2023-05-14T04:57:51;10.85;;;8.65;;
55368;SDS011;41247;49.736;8.752;2023-05-14T05:01:31;11.27;;;8.30;;
55368;SDS011;41247;49.736;8.752;2023-05-14T05:05:12;11.13;;;8.18;;
55368;SDS011;41247;49.736;8.752;2023-05-14T05:08:53;12.13;;;8.38;;
55368;SDS011;41247;49.736;8.752;2023-05-14T05:12:34;12.38;;;9.30;;
55368;SDS011;41247;49.736;8.752;2023-05-14T05:16:15;9.88;;;7.78;;
55368;SDS011;41247;49.736;8.752;2023-05-14T05:19:56;11.95;;;7.80;;
55368;SDS011;41247;49.736;8.752;2023-05-14T05:23:36;11.18;;;8.30;;
55368;SDS011;41247;49.736;8.752;2023-05-14T05:27:17;12.60;;;8.75;;
55368;SDS011;41247;49.736;8.752;2023-05-14T05:30:58;10.25;;;8.20;;
55368;SDS011;41247;49.736;8.752;2023-05-14T05:34:39;12.23;;;7.78;;
55368;SDS011;41247;49.736;8.752;2023-05-14T05:38:20;9.95;;;8.05;;
55368;SDS011;41247;49.736;8.752;2023-05-14T05:42:01;11.55;;;8.15;;
55368;SDS011;41247;49.736;8.752;2023-05-14T05:45:42;8.15;;;6.85;;
55368;SDS011;41247;49.736;8.752;2023-05-14T05:49:22;10.20;;;7.95;;
55368;SDS011;41247;49.736;8.752;2023-05-14T05:53:03;10.15;;;7.75;;
55368;SDS011;41247;49.736;8.752;2023-05-14T05:56:44;9.20;;;7.65;;
55368;SDS011;41247;49.736;8.752;2023-05-14T06:00:24;12.55;;;7.82;;
55368;SDS011;41247;49.736;8.752;2023-05-14T06:04:05;8.85;;;7.18;;
55368;SDS011;41247;49.736;8.752;2023-05-14T06:07:45;9.70;;;7.72;;
55368;SDS011;41247;49.736;8.752;2023-05-14T06:11:26;9.57;;;7.30;;
55368;SDS011;41247;49.736;8.752;2023-05-14T06:15:07;10.60;;;7.25;;
55368;SDS011;41247;49.736;8.752;2023-05-14T06:18:48;10.27;;;6.80;;
55368;SDS011;41247;49.736;8.752;2023-05-14T06:22:31;11.88;;;6.93;;
55368;SDS011;41247;49.736;8.752;2023-05-14T06:26:15;10.68;;;6.95;;
55368;SDS011;41247;49.736;8.752;2023-05-14T06:30:01;10.18;;;6.88;;
55368;SDS011;41247;49.736;8.752;2023-05-14T06:33:46;10.23;;;6.45;;
55368;SDS011;41247;49.736;8.752;2023-05-14T06:41:07;9.18;;;6.70;;
55368;SDS011;41247;49.736;8.752;2023-05-14T06:44:48;10.07;;;6.80;;
55368;SDS011;41247;49.736;8.752;2023-05-14T06:48:29;14.45;;;6.63;;
55368;SDS011;41247;49.736;8.752;2023-05-14T06:52:10;9.57;;;7.20;;
55368;SDS011;41247;49.736;8.752;2023-05-14T06:55:50;10.52;;;6.38;;
55368;SDS011;41247;49.736;8.752;2023-05-14T06:59:31;9.90;;;6.20;;
55368;SDS011;41247;49.736;8.752;2023-05-14T07:03:11;8.00;;;6.25;;
55368;SDS011;41247;49.736;8.752;2023-05-14T07:06:52;8.43;;;6.57;;
55368;SDS011;41247;49.736;8.752;2023-05-14T07:10:33;10.23;;;6.10;;
55368;SDS011;41247;49.736;8.752;2023-05-14T07:14:13;9.38;;;6.55;;
55368;SDS011;41247;49.736;8.752;2023-05-14T07:17:54;8.05;;;6.70;;
55368;SDS011;41247;49.736;8.752;2023-05-14T07:21:34;7.95;;;5.72;;
55368;SDS011;41247;49.736;8.752;2023-05-14T07:25:15;7.47;;;5.60;;
55368;SDS011;41247;49.736;8.752;2023-05-14T07:28:56;11.88;;;6.22;;
55368;SDS011;41247;49.736;8.752;2023-05-14T07:32:36;11.93;;;5.60;;
55368;SDS011;41247;49.736;8.752;2023-05-14T07:36:17;8.73;;;5.70;;
55368;SDS011;41247;49.736;8.752;2023-05-14T07:39:57;11.55;;;6.35;;
55368;SDS011;41247;49.736;8.752;2023-05-14T07:43:38;8.40;;;5.20;;
55368;SDS011;41247;49.736;8.752;2023-05-14T07:47:18;8.90;;;5.97;;
55368;SDS011;41247;49.736;8.752;2023-05-14T07:50:59;7.10;;;6.07;;
55368;SDS011;41247;49.736;8.752;2023-05-14T07:54:40;9.50;;;6.25;;
55368;SDS011;41247;49.736;8.752;2023-05-14T07:58:20;7.68;;;6.07;;
55368;SDS011;41247;49.736;8.752;2023-05-14T08:02:01;9.10;;;6.15;;
55368;SDS011;41247;49.736;8.752;2023-05-14T08:05:41;10.45;;;6.05;;
55368;SDS011;41247;49.736;8.752;2023-05-14T08:09:22;7.82;;;5.47;;
55368;SDS011;41247;49.736;8.752;2023-05-14T08:13:03;10.38;;;6.32;;
55368;SDS011;41247;49.736;8.752;2023-05-14T08:16:43;8.40;;;6.35;;
55368;SDS011;41247;49.736;8.752;2023-05-14T08:20:24;10.40;;;5.70;;
55368;SDS011;41247;49.736;8.752;2023-05-14T08:24:05;12.75;;;6.60;;
55368;SDS011;41247;49.736;8.752;2023-05-14T08:27:45;6.25;;;5.03;;
55368;SDS011;41247;49.736;8.752;2023-05-14T08:31:26;8.18;;;6.03;;
55368;SDS011;41247;49.736;8.752;2023-05-14T08:35:06;9.38;;;6.28;;
55368;SDS011;41247;49.736;8.752;2023-05-14T08:38:47;9.57;;;6.07;;
55368;SDS011;41247;49.736;8.752;2023-05-14T08:42:28;7.20;;;5.75;;
55368;SDS011;41247;49.736;8.752;2023-05-14T08:46:09;9.52;;;5.75;;
55368;SDS011;41247;49.736;8.752;2023-05-14T08:50:03;7.55;;;5.80;;
55368;SDS011;41247;49.736;8.752;2023-05-14T08:53:46;6.75;;;5.10;;
55368;SDS011;41247;49.736;8.752;2023-05-14T08:57:27;7.43;;;4.95;;
55368;SDS011;41247;49.736;8.752;2023-05-14T09:01:09;6.70;;;4.97;;
55368;SDS011;41247;49.736;8.752;2023-05-14T09:04:51;9.15;;;5.90;;
55368;SDS011;41247;49.736;8.752;2023-05-14T09:08:35;6.28;;;5.10;;
55368;SDS011;41247;49.736;8.752;2023-05-14T09:12:16;6.97;;;5.32;;
55368;SDS011;41247;49.736;8.752;2023-05-14T09:15:57;7.35;;;5.18;;
55368;SDS011;41247;49.736;8.752;2023-05-14T09:19:39;5.28;;;4.78;;
55368;SDS011;41247;49.736;8.752;2023-05-14T09:23:20;5.55;;;4.82;;
55368;SDS011;41247;49.736;8.752;2023-05-14T09:27:01;6.88;;;4.95;;
55368;SDS011;41247;49.736;8.752;2023-05-14T09:30:43;6.75;;;5.40;;
55368;SDS011;41247;49.736;8.752;2023-05-14T09:34:30;5.28;;;4.78;;
55368;SDS011;41247;49.736;8.752;2023-05-14T09:38:13;6.28;;;5.15;;
55368;SDS011;41247;49.736;8.752;2023-05-14T09:41:55;6.43;;;4.90;;
55368;SDS011;41247;49.736;8.752;2023-05-14T09:45:36;5.20;;;4.70;;
55368;SDS011;41247;49.736;8.752;2023-05-14T09:49:17;4.55;;;4.13;;
55368;SDS011;41247;49.736;8.752;2023-05-14T09:52:57;4.70;;;4.30;;
55368;SDS011;41247;49.736;8.752;2023-05-14T09:56:39;6.50;;;5.18;;
55368;SDS011;41247;49.736;8.752;2023-05-14T10:00:20;6.70;;;4.55;;
55368;SDS011;41247;49.736;8.752;2023-05-14T10:04:05;6.07;;;4.00;;
55368;SDS011;41247;49.736;8.752;2023-05-14T10:07:48;5.40;;;4.25;;
55368;SDS011;41247;49.736;8.752;2023-05-14T10:11:33;7.97;;;4.63;;
55368;SDS011;41247;49.736;8.752;2023-05-14T10:15:22;5.55;;;4.15;;
55368;SDS011;41247;49.736;8.752;2023-05-14T10:19:22;5.38;;;4.65;;
55368;SDS011;41247;49.736;8.752;2023-05-14T10:26:45;5.40;;;4.38;;
55368;SDS011;41247;49.736;8.752;2023-05-14T10:30:26;6.78;;;4.38;;
55368;SDS011;41247;49.736;8.752;2023-05-14T10:34:07;5.72;;;4.15;;
55368;SDS011;41247;49.736;8.752;2023-05-14T10:38:20;3.97;;;3.67;;
55368;SDS011;41247;49.736;8.752;2023-05-14T10:42:04;9.05;;;4.40;;
55368;SDS011;41247;49.736;8.752;2023-05-14T10:45:46;4.22;;;3.67;;
55368;SDS011;41247;49.736;8.752;2023-05-14T10:49:27;6.03;;;4.25;;
55368;SDS011;41247;49.736;8.752;2023-05-14T10:53:12;5.68;;;3.25;;
55368;SDS011;41247;49.736;8.752;2023-05-14T10:56:52;4.07;;;3.67;;
55368;SDS011;41247;49.736;8.752;2023-05-14T11:00:33;3.60;;;3.30;;
55368;SDS011;41247;49.736;8.752;2023-05-14T11:04:17;8.75;;;3.60;;
55368;SDS011;41247;49.736;8.752;2023-05-14T11:07:58;6.00;;;3.72;;
55368;SDS011;41247;49.736;8.752;2023-05-14T11:11:41;4.32;;;3.08;;
55368;SDS011;41247;49.736;8.752;2023-05-14T11:15:23;3.40;;;3.10;;
55368;SDS011;41247;49.736;8.752;2023-05-14T11:19:05;3.88;;;3.42;;
55368;SDS011;41247;49.736;8.752;2023-05-14T11:22:46;5.18;;;3.20;;
55368;SDS011;41247;49.736;8.752;2023-05-14T11:26:28;4.45;;;3.05;;
55368;SDS011;41247;49.736;8.752;2023-05-14T11:30:11;3.80;;;3.47;;
55368;SDS011;41247;49.736;8.752;2023-05-14T11:33:53;3.75;;;3.38;;
55368;SDS011;41247;49.736;8.752;2023-05-14T11:37:34;4.40;;;3.30;;
55368;SDS011;41247;49.736;8.752;2023-05-14T11:41:15;4.45;;;3.40;;
55368;SDS011;41247;49.736;8.752;2023-05-14T11:44:55;4.10;;;3.70;;
55368;SDS011;41247;49.736;8.752;2023-05-14T11:48:36;3.65;;;3.28;;
55368;SDS011;41247;49.736;8.752;2023-05-14T11:52:16;3.97;;;3.17;;
55368;SDS011;41247;49.736;8.752;2023-05-14T11:55:57;3.85;;;3.08;;
55368;SDS011;41247;49.736;8.752;2023-05-14T11:59:38;3.53;;;3.10;;
55368;SDS011;41247;49.736;8.752;2023-05-14T12:03:19;3.60;;;3.08;;
55368;SDS011;41247;49.736;8.752;2023-05-14T12:07:06;2.78;;;2.58;;
55368;SDS011;41247;49.736;8.752;2023-05-14T12:10:52;5.57;;;3.65;;
55368;SDS011;41247;49.736;8.752;2023-05-14T12:14:35;7.35;;;3.30;;
55368;SDS011;41247;49.736;8.752;2023-05-14T12:18:18;2.47;;;2.28;;
55368;SDS011;41247;49.736;8.752;2023-05-14T12:21:59;3.72;;;2.88;;
55368;SDS011;41247;49.736;8.752;2023-05-14T12:25:48;3.28;;;2.97;;
55368;SDS011;41247;49.736;8.752;2023-05-14T12:29:29;3.03;;;2.65;;
55368;SDS011;41247;49.736;8.752;2023-05-14T12:33:14;3.00;;;2.70;;
55368;SDS011;41247;49.736;8.752;2023-05-14T12:36:55;3.58;;;3.03;;
55368;SDS011;41247;49.736;8.752;2023-05-14T12:40:35;4.60;;;3.25;;
55368;SDS011;41247;49.736;8.752;2023-05-14T12:44:16;3.20;;;2.90;;
55368;SDS011;41247;49.736;8.752;2023-05-14T12:47:57;5.35;;;3.10;;
55368;SDS011;41247;49.736;8.752;2023-05-14T12:51:38;4.75;;;3.50;;
55368;SDS011;41247;49.736;8.752;2023-05-14T12:55:18;3.20;;;2.90;;
55368;SDS011;41247;49.736;8.752;2023-05-14T12:59:00;4.95;;;3.30;;
55368;SDS011;41247;49.736;8.752;2023-05-14T13:02:41;3.75;;;3.35;;
55368;SDS011;41247;49.736;8.752;2023-05-14T13:06:21;3.75;;;3.20;;
55368;SDS011;41247;49.736;8.752;2023-05-14T13:10:02;3.67;;;3.13;;
55368;SDS011;41247;49.736;8.752;2023-05-14T13:13:44;3.33;;;3.00;;
55368;SDS011;41247;49.736;8.752;2023-05-14T13:17:25;3.22;;;2.92;;
55368;SDS011;41247;49.736;8.752;2023-05-14T13:21:05;3.58;;;3.00;;
55368;SDS011;41247;49.736;8.752;2023-05-14T13:24:46;3.20;;;2.90;;
55368;SDS011;41247;49.736;8.752;2023-05-14T13:28:27;2.70;;;2.50;;
55368;SDS011;41247;49.736;8.752;2023-05-14T13:32:07;2.88;;;2.67;;
55368;SDS011;41247;49.736;8.752;2023-05-14T13:35:48;4.30;;;2.63;;
55368;SDS011;41247;49.736;8.752;2023-05-14T13:39:28;3.03;;;2.70;;
55368;SDS011;41247;49.736;8.752;2023-05-14T13:43:09;4.80;;;2.63;;
55368;SDS011;41247;49.736;8.752;2023-05-14T13:46:49;2.72;;;2.42;;
55368;SDS011;41247;49.736;8.752;2023-05-14T13:50:30;2.50;;;2.30;;
55368;SDS011;41247;49.736;8.752;2023-05-14T13:54:11;2.67;;;2.47;;
55368;SDS011;41247;49.736;8.752;2023-05-14T13:57:51;3.28;;;2.88;;
55368;SDS011;41247;49.736;8.752;2023-05-14T14:01:32;2.75;;;2.38;;
55368;SDS011;41247;49.736;8.752;2023-05-14T14:05:12;3.30;;;3.00;;
55368;SDS011;41247;49.736;8.752;2023-05-14T14:08:53;4.75;;;2.45;;
55368;SDS011;41247;49.736;8.752;2023-05-14T14:12:34;3.92;;;2.45;;
55368;SDS011;41247;49.736;8.752;2023-05-14T14:16:14;2.55;;;2.35;;
55368;SDS011;41247;49.736;8.752;2023-05-14T14:19:55;2.80;;;2.60;;
55368;SDS011;41247;49.736;8.752;2023-05-14T14:23:36;2.88;;;2.33;;
55368;SDS011;41247;49.736;8.752;2023-05-14T14:27:16;3.92;;;2.22;;
55368;SDS011;41247;49.736;8.752;2023-05-14T14:30:57;2.47;;;2.03;;
55368;SDS011;41247;49.736;8.752;2023-05-14T14:34:37;2.17;;;1.98;;
55368;SDS011;41247;49.736;8.752;2023-05-14T14:38:18;2.25;;;2.05;;
55368;SDS011;41247;49.736;8.752;2023-05-14T14:41:59;2.40;;;1.80;;
55368;SDS011;41247;49.736;8.752;2023-05-14T14:45:39;2.15;;;1.98;;
55368;SDS011;41247;49.736;8.752;2023-05-14T14:49:20;2.92;;;2.20;;
55368;SDS011;41247;49.736;8.752;2023-05-14T14:53:01;2.15;;;1.95;;
55368;SDS011;41247;49.736;8.752;2023-05-14T14:56:41;1.95;;;1.85;;
55368;SDS011;41247;49.736;8.752;2023-05-14T15:00:22;2.45;;;1.80;;
55368;SDS011;41247;49.736;8.752;2023-05-14T15:04:02;1.75;;;1.55;;
55368;SDS011;41247;49.736;8.752;2023-05-14T15:07:43;1.83;;;1.73;;
55368;SDS011;41247;49.736;8.752;2023-05-14T15:11:24;1.80;;;1.70;;
55368;SDS011;41247;49.736;8.752;2023-05-14T15:15:05;2.08;;;1.98;;
55368;SDS011;41247;49.736;8.752;2023-05-14T15:18:46;4.78;;;1.50;;
55368;SDS011;41247;49.736;8.752;2023-05-14T15:22:27;1.40;;;1.30;;
55368;SDS011;41247;49.736;8.752;2023-05-14T15:26:07;2.90;;;1.58;;
55368;SDS011;41247;49.736;8.752;2023-05-14T15:29:48;2.60;;;1.45;;
55368;SDS011;41247;49.736;8.752;2023-05-14T15:33:28;1.40;;;1.30;;
55368;SDS011;41247;49.736;8.752;2023-05-14T15:37:09;2.95;;;1.50;;
55368;SDS011;41247;49.736;8.752;2023-05-14T15:40:49;1.88;;;1.35;;
55368;SDS011;41247;49.736;8.752;2023-05-14T15:44:30;2.35;;;1.50;;
55368;SDS011;41247;49.736;8.752;2023-05-14T15:48:11;2.30;;;1.38;;
55368;SDS011;41247;49.736;8.752;2023-05-14T15:51:51;3.10;;;2.30;;
55368;SDS011;41247;49.736;8.752;2023-05-14T15:55:32;3.25;;;1.58;;
55368;SDS011;41247;49.736;8.752;2023-05-14T15:59:13;1.50;;;1.40;;
55368;SDS011;41247;49.736;8.752;2023-05-14T16:02:53;1.55;;;1.45;;
55368;SDS011;41247;49.736;8.752;2023-05-14T16:06:34;1.50;;;1.40;;
55368;SDS011;41247;49.736;8.752;2023-05-14T16:10:14;1.70;;;1.42;;
55368;SDS011;41247;49.736;8.752;2023-05-14T16:13:55;1.98;;;1.80;;
55368;SDS011;41247;49.736;8.752;2023-05-14T16:17:36;3.10;;;1.70;;
55368;SDS011;41247;49.736;8.752;2023-05-14T16:21:16;1.77;;;1.60;;
55368;SDS011;41247;49.736;8.752;2023-05-14T16:24:57;1.95;;;1.60;;
55368;SDS011;41247;49.736;8.752;2023-05-14T16:28:38;2.80;;;1.80;;
55368;SDS011;41247;49.736;8.752;2023-05-14T16:32:18;2.92;;;1.83;;
55368;SDS011;41247;49.736;8.752;2023-05-14T16:35:59;2.17;;;1.88;;
55368;SDS011;41247;49.736;8.752;2023-05-14T16:39:39;2.17;;;1.70;;
55368;SDS011;41247;49.736;8.752;2023-05-14T16:43:20;2.15;;;1.65;;
55368;SDS011;41247;49.736;8.752;2023-05-14T16:47:01;5.95;;;2.10;;
55368;SDS011;41247;49.736;8.752;2023-05-14T16:50:41;1.60;;;1.50;;
55368;SDS011;41247;49.736;8.752;2023-05-14T16:54:22;1.92;;;1.73;;
55368;SDS011;41247;49.736;8.752;2023-05-14T16:58:02;2.63;;;1.90;;
55368;SDS011;41247;49.736;8.752;2023-05-14T17:01:43;2.35;;;1.67;;
55368;SDS011;41247;49.736;8.752;2023-05-14T17:05:23;2.35;;;1.80;;
55368;SDS011;41247;49.736;8.752;2023-05-14T17:09:04;2.33;;;1.88;;
55368;SDS011;41247;49.736;8.752;2023-05-14T17:12:45;2.10;;;1.90;;
55368;SDS011;41247;49.736;8.752;2023-05-14T17:16:25;2.30;;;2.10;;
55368;SDS011;41247;49.736;8.752;2023-05-14T17:20:06;1.85;;;1.73;;
55368;SDS011;41247;49.736;8.752;2023-05-14T17:23:47;3.78;;;1.67;;
55368;SDS011;41247;49.736;8.752;2023-05-14T17:27:28;5.05;;;1.88;;
55368;SDS011;41247;49.736;8.752;2023-05-14T17:31:08;2.20;;;2.00;;
55368;SDS011;41247;49.736;8.752;2023-05-14T17:34:49;2.13;;;1.92;;
55368;SDS011;41247;49.736;8.752;2023-05-14T17:38:30;7.18;;;2.00;;
55368;SDS011;41247;49.736;8.752;2023-05-14T17:42:10;3.05;;;1.95;;
55368;SDS011;41247;49.736;8.752;2023-05-14T17:45:51;4.50;;;2.40;;
55368;SDS011;41247;49.736;8.752;2023-05-14T17:49:31;3.03;;;1.85;;
55368;SDS011;41247;49.736;8.752;2023-05-14T17:53:12;6.07;;;2.22;;
55368;SDS011;41247;49.736;8.752;2023-05-14T17:56:53;2.63;;;1.92;;
55368;SDS011;41247;49.736;8.752;2023-05-14T18:00:34;4.05;;;1.90;;
55368;SDS011;41247;49.736;8.752;2023-05-14T18:04:14;2.30;;;1.80;;
55368;SDS011;41247;49.736;8.752;2023-05-14T18:07:55;2.05;;;1.70;;
55368;SDS011;41247;49.736;8.752;2023-05-14T18:11:36;2.30;;;1.85;;
55368;SDS011;41247;49.736;8.752;2023-05-14T18:15:16;1.60;;;1.50;;
55368;SDS011;41247;49.736;8.752;2023-05-14T18:18:57;3.30;;;1.70;;
55368;SDS011;41247;49.736;8.752;2023-05-14T18:22:38;2.33;;;1.98;;
55368;SDS011;41247;49.736;8.752;2023-05-14T18:26:19;2.45;;;1.90;;
55368;SDS011;41247;49.736;8.752;2023-05-14T18:29:59;3.75;;;1.60;;
55368;SDS011;41247;49.736;8.752;2023-05-14T18:33:40;2.78;;;1.90;;
55368;SDS011;41247;49.736;8.752;2023-05-14T18:37:21;5.35;;;2.00;;
55368;SDS011;41247;49.736;8.752;2023-05-14T18:41:01;3.47;;;1.98;;
55368;SDS011;41247;49.736;8.752;2023-05-14T18:44:42;3.83;;;1.95;;
55368;SDS011;41247;49.736;8.752;2023-05-14T18:48:22;2.65;;;1.90;;
55368;SDS011;41247;49.736;8.752;2023-05-14T18:52:03;3.03;;;2.20;;
55368;SDS011;41247;49.736;8.752;2023-05-14T18:55:45;5.85;;;2.10;;
55368;SDS011;41247;49.736;8.752;2023-05-14T18:59:25;4.20;;;2.00;;
55368;SDS011;41247;49.736;8.752;2023-05-14T19:03:06;3.03;;;2.60;;
55368;SDS011;41247;49.736;8.752;2023-05-14T19:06:46;5.82;;;2.22;;
55368;SDS011;41247;49.736;8.752;2023-05-14T19:10:27;2.58;;;1.90;;
55368;SDS011;41247;49.736;8.752;2023-05-14T19:14:07;4.07;;;2.08;;
55368;SDS011;41247;49.736;8.752;2023-05-14T19:17:48;2.63;;;1.90;;
55368;SDS011;41247;49.736;8.752;2023-05-14T19:21:29;1.95;;;1.80;;
55368;SDS011;41247;49.736;8.752;2023-05-14T19:25:09;2.30;;;1.85;;
55368;SDS011;41247;49.736;8.752;2023-05-14T19:28:50;3.08;;;2.30;;
55368;SDS011;41247;49.736;8.752;2023-05-14T19:32:31;4.20;;;2.17;;
55368;SDS011;41247;49.736;8.752;2023-05-14T19:36:11;3.83;;;2.00;;
55368;SDS011;41247;49.736;8.752;2023-05-14T19:39:52;4.55;;;2.10;;
55368;SDS011;41247;49.736;8.752;2023-05-14T19:43:32;6.18;;;2.33;;
55368;SDS011;41247;49.736;8.752;2023-05-14T19:47:13;4.05;;;2.50;;
55368;SDS011;41247;49.736;8.752;2023-05-14T19:50:54;3.60;;;2.28;;
55368;SDS011;41247;49.736;8.752;2023-05-14T19:54:34;4.15;;;2.42;;
55368;SDS011;41247;49.736;8.752;2023-05-14T19:58:15;3.33;;;2.10;;
55368;SDS011;41247;49.736;8.752;2023-05-14T20:01:55;5.53;;;2.65;;
55368;SDS011;41247;49.736;8.752;2023-05-14T20:05:36;2.42;;;2.20;;
55368;SDS011;41247;49.736;8.752;2023-05-14T20:09:17;3.33;;;2.20;;
55368;SDS011;41247;49.736;8.752;2023-05-14T20:12:57;4.22;;;2.40;;
55368;SDS011;41247;49.736;8.752;2023-05-14T20:16:38;3.47;;;2.25;;
55368;SDS011;41247;49.736;8.752;2023-05-14T20:20:19;3.88;;;2.30;;
55368;SDS011;41247;49.736;8.752;2023-05-14T20:24:00;4.20;;;2.70;;
55368;SDS011;41247;49.736;8.752;2023-05-14T20:27:41;3.58;;;2.40;;
55368;SDS011;41247;49.736;8.752;2023-05-14T20:31:22;2.70;;;2.50;;
55368;SDS011;41247;49.736;8.752;2023-05-14T20:35:02;4.78;;;2.47;;
55368;SDS011;41247;49.736;8.752;2023-05-14T20:38:43;2.78;;;2.38;;
55368;SDS011;41247;49.736;8.752;2023-05-14T20:42:24;4.47;;;2.42;;
55368;SDS011;41247;49.736;8.752;2023-05-14T20:46:05;3.75;;;2.80;;
55368;SDS011;41247;49.736;8.752;2023-05-14T20:49:46;3.75;;;2.70;;
55368;SDS011;41247;49.736;8.752;2023-05-14T20:53:27;4.57;;;2.63;;
55368;SDS011;41247;49.736;8.752;2023-05-14T20:57:08;4.07;;;2.60;;
55368;SDS011;41247;49.736;8.752;2023-05-14T21:00:50;5.18;;;2.72;;
55368;SDS011;41247;49.736;8.752;2023-05-14T21:04:31;4.20;;;2.72;;
55368;SDS011;41247;49.736;8.752;2023-05-14T21:08:13;2.95;;;2.47;;
55368;SDS011;41247;49.736;8.752;2023-05-14T21:11:55;4.10;;;3.25;;
55368;SDS011;41247;49.736;8.752;2023-05-14T21:15:35;3.92;;;3.53;;
55368;SDS011;41247;49.736;8.752;2023-05-14T21:19:16;3.85;;;2.50;;
55368;SDS011;41247;49.736;8.752;2023-05-14T21:22:57;4.93;;;3.00;;
55368;SDS011;41247;49.736;8.752;2023-05-14T21:26:37;4.47;;;3.00;;
55368;SDS011;41247;49.736;8.752;2023-05-14T21:30:18;3.97;;;2.70;;
55368;SDS011;41247;49.736;8.752;2023-05-14T21:33:59;3.45;;;2.30;;
55368;SDS011;41247;49.736;8.752;2023-05-14T21:37:39;3.42;;;2.70;;
55368;SDS011;41247;49.736;8.752;2023-05-14T21:41:20;5.25;;;2.47;;
55368;SDS011;41247;49.736;8.752;2023-05-14T21:45:01;2.70;;;2.45;;
55368;SDS011;41247;49.736;8.752;2023-05-14T21:48:41;3.88;;;3.40;;
55368;SDS011;41247;49.736;8.752;2023-05-14T21:52:22;5.07;;;3.00;;
55368;SDS011;41247;49.736;8.752;2023-05-14T21:56:02;3.78;;;2.95;;
55368;SDS011;41247;49.736;8.752;2023-05-14T21:59:43;8.00;;;2.95;;
55368;SDS011;41247;49.736;8.752;2023-05-14T22:03:25;3.58;;;2.88;;
55368;SDS011;41247;49.736;8.752;2023-05-14T22:07:05;8.48;;;2.50;;
55368;SDS011;41247;49.736;8.752;2023-05-14T22:10:46;2.92;;;2.47;;
55368;SDS011;41247;49.736;8.752;2023-05-14T22:14:27;4.32;;;2.60;;
55368;SDS011;41247;49.736;8.752;2023-05-14T22:18:07;4.57;;;2.63;;
55368;SDS011;41247;49.736;8.752;2023-05-14T22:21:48;3.28;;;2.53;;
55368;SDS011;41247;49.736;8.752;2023-05-14T22:25:28;3.85;;;2.40;;